sensor_id;sensor_type;location;lat;lon;timestamp;pressure;altitude;pressure_sealevel;temperature;humidity
56052;BME280;41919;42.648;23.384;2023-03-29T00:00:59;94861.44;;;-0.23;64.74
56052;BME280;41919;42.648;23.384;2023-03-29T00:03:25;94929.34;;;0.25;64.23
56052;BME280;41919;42.648;23.384;2023-03-29T00:05:51;94930.19;;;0.25;64.70
56052;BME280;41919;42.648;23.384;2023-03-29T00:08:22;94923.91;;;0.08;64.46
56052;BME280;41919;42.648;23.384;2023-03-29T00:10:48;94938.25;;;0.21;64.67
56052;BME280;41919;42.648;23.384;2023-03-29T00:13:13;94930.56;;;0.30;64.32
56052;BME280;41919;42.648;23.384;2023-03-29T00:15:40;94862.81;;;-0.19;63.85
56052;BME280;41919;42.648;23.384;2023-03-29T00:18:06;94844.66;;;-0.27;63.96
56052;BME280;41919;42.648;23.384;2023-03-29T00:20:31;94902.00;;;0.14;63.56
56052;BME280;41919;42.648;23.384;2023-03-29T00:22:56;94930.44;;;0.22;63.77
56052;BME280;41919;42.648;23.384;2023-03-29T00:25:22;94840.72;;;-0.31;63.80
56052;BME280;41919;42.648;23.384;2023-03-29T00:27:47;94831.13;;;-0.29;63.48
56052;BME280;41919;42.648;23.384;2023-03-29T00:30:13;94846.38;;;-0.37;63.48
56052;BME280;41919;42.648;23.384;2023-03-29T00:32:39;94915.19;;;-0.01;63.66
56052;BME280;41919;42.648;23.384;2023-03-29T00:35:05;94849.88;;;-0.38;63.50
56052;BME280;41919;42.648;23.384;2023-03-29T00:37:31;94925.22;;;0.03;63.30
56052;BME280;41919;42.648;23.384;2023-03-29T00:39:57;94904.53;;;-0.06;63.04
56052;BME280;41919;42.648;23.384;2023-03-29T00:42:23;94918.84;;;-0.03;63.35
56052;BME280;41919;42.648;23.384;2023-03-29T00:44:57;94926.03;;;0.03;62.95
56052;BME280;41919;42.648;23.384;2023-03-29T00:47:39;94929.94;;;-0.03;62.78
56052;BME280;41919;42.648;23.384;2023-03-29T00:52:46;94844.72;;;-0.48;61.81
56052;BME280;41919;42.648;23.384;2023-03-29T00:55:18;94915.88;;;0.02;61.60
56052;BME280;41919;42.648;23.384;2023-03-29T00:57:46;94928.56;;;-0.07;61.33
56052;BME280;41919;42.648;23.384;2023-03-29T01:00:16;94854.06;;;-0.47;61.66
56052;BME280;41919;42.648;23.384;2023-03-29T01:02:46;94901.03;;;-0.26;61.55
56052;BME280;41919;42.648;23.384;2023-03-29T01:05:22;94915.97;;;-0.10;61.85
56052;BME280;41919;42.648;23.384;2023-03-29T01:08:07;94933.56;;;-0.15;62.15
56052;BME280;41919;42.648;23.384;2023-03-29T01:10:42;94921.06;;;-0.20;62.32
56052;BME280;41919;42.648;23.384;2023-03-29T01:13:18;94937.34;;;-0.09;61.78
56052;BME280;41919;42.648;23.384;2023-03-29T01:15:46;94916.38;;;-0.14;61.57
56052;BME280;41919;42.648;23.384;2023-03-29T01:18:12;94913.13;;;-0.16;61.84
56052;BME280;41919;42.648;23.384;2023-03-29T01:31:53;94927.25;;;-0.32;62.80
56052;BME280;41919;42.648;23.384;2023-03-29T01:34:26;94932.47;;;-0.12;62.95
56052;BME280;41919;42.648;23.384;2023-03-29T01:37:11;94854.50;;;-0.73;62.34
56052;BME280;41919;42.648;23.384;2023-03-29T01:39:39;94850.84;;;-0.70;62.29
56052;BME280;41919;42.648;23.384;2023-03-29T01:50:37;94933.94;;;-0.10;61.54
56052;BME280;41919;42.648;23.384;2023-03-29T01:53:17;94853.13;;;-0.67;61.63
56052;BME280;41919;42.648;23.384;2023-03-29T01:55:50;94945.44;;;-0.14;61.41
56052;BME280;41919;42.648;23.384;2023-03-29T01:58:17;94848.72;;;-0.65;60.88
56052;BME280;41919;42.648;23.384;2023-03-29T02:00:45;94867.97;;;-0.50;60.96
56052;BME280;41919;42.648;23.384;2023-03-29T02:03:12;94898.94;;;-0.42;60.98
56052;BME280;41919;42.648;23.384;2023-03-29T02:05:41;94875.13;;;-0.53;60.54
56052;BME280;41919;42.648;23.384;2023-03-29T02:08:09;94894.50;;;-0.40;60.46
56052;BME280;41919;42.648;23.384;2023-03-29T02:10:36;94796.38;;;-1.05;60.55
56052;BME280;41919;42.648;23.384;2023-03-29T02:13:03;94921.31;;;-0.32;60.71
56052;BME280;41919;42.648;23.384;2023-03-29T02:15:29;94957.19;;;-0.21;61.12
56052;BME280;41919;42.648;23.384;2023-03-29T02:17:55;94933.63;;;-0.26;60.68
56052;BME280;41919;42.648;23.384;2023-03-29T02:20:27;94955.59;;;-0.12;60.09
56052;BME280;41919;42.648;23.384;2023-03-29T02:23:06;94952.78;;;-0.09;60.05
56052;BME280;41919;42.648;23.384;2023-03-29T02:25:35;94891.31;;;-0.53;60.13
56052;BME280;41919;42.648;23.384;2023-03-29T02:28:03;94952.22;;;-0.13;59.78
56052;BME280;41919;42.648;23.384;2023-03-29T02:30:55;94955.03;;;-0.16;59.96
56052;BME280;41919;42.648;23.384;2023-03-29T02:33:38;94963.25;;;-0.22;59.88
56052;BME280;41919;42.648;23.384;2023-03-29T02:36:17;94963.53;;;-0.15;59.79
56052;BME280;41919;42.648;23.384;2023-03-29T02:38:43;94942.47;;;-0.19;59.37
56052;BME280;41919;42.648;23.384;2023-03-29T02:41:10;94954.81;;;-0.03;58.78
56052;BME280;41919;42.648;23.384;2023-03-29T02:43:37;94896.38;;;-0.42;58.93
56052;BME280;41919;42.648;23.384;2023-03-29T02:46:04;94902.09;;;-0.38;58.73
56052;BME280;41919;42.648;23.384;2023-03-29T02:48:34;94969.16;;;-0.01;58.37
56052;BME280;41919;42.648;23.384;2023-03-29T02:51:07;94883.19;;;-0.58;58.70
56052;BME280;41919;42.648;23.384;2023-03-29T02:53:41;94973.09;;;0.04;58.11
56052;BME280;41919;42.648;23.384;2023-03-29T02:56:08;94895.69;;;-0.44;58.16
56052;BME280;41919;42.648;23.384;2023-03-29T02:58:33;94875.25;;;-0.55;58.56
56052;BME280;41919;42.648;23.384;2023-03-29T03:01:01;94871.03;;;-0.56;58.41
56052;BME280;41919;42.648;23.384;2023-03-29T03:03:28;94952.47;;;-0.16;58.79
56052;BME280;41919;42.648;23.384;2023-03-29T03:05:53;94969.47;;;0.06;59.02
56052;BME280;41919;42.648;23.384;2023-03-29T03:08:18;94972.28;;;0.03;58.65
56052;BME280;41919;42.648;23.384;2023-03-29T03:10:44;94954.47;;;-0.20;59.17
56052;BME280;41919;42.648;23.384;2023-03-29T03:13:10;94891.31;;;-0.53;59.42
56052;BME280;41919;42.648;23.384;2023-03-29T03:15:37;94976.94;;;-0.12;60.05
56052;BME280;41919;42.648;23.384;2023-03-29T03:18:07;94974.69;;;-0.05;60.18
56052;BME280;41919;42.648;23.384;2023-03-29T03:20:34;94908.78;;;-0.47;60.21
56052;BME280;41919;42.648;23.384;2023-03-29T03:23:00;94886.72;;;-0.80;60.91
56052;BME280;41919;42.648;23.384;2023-03-29T03:25:28;94899.03;;;-0.74;60.88
56052;BME280;41919;42.648;23.384;2023-03-29T03:27:53;94900.53;;;-0.71;60.77
56052;BME280;41919;42.648;23.384;2023-03-29T03:30:19;94914.88;;;-0.69;60.81
56052;BME280;41919;42.648;23.384;2023-03-29T03:32:45;94849.22;;;-1.13;60.88
56052;BME280;41919;42.648;23.384;2023-03-29T03:35:11;94983.63;;;-0.30;61.32
56052;BME280;41919;42.648;23.384;2023-03-29T03:37:37;94986.75;;;-0.27;61.16
56052;BME280;41919;42.648;23.384;2023-03-29T03:40:04;94927.66;;;-0.78;61.28
56052;BME280;41919;42.648;23.384;2023-03-29T03:42:30;94981.13;;;-0.42;60.66
56052;BME280;41919;42.648;23.384;2023-03-29T03:44:56;94992.09;;;-0.40;60.46
56052;BME280;41919;42.648;23.384;2023-03-29T03:47:22;94926.72;;;-0.77;59.96
56052;BME280;41919;42.648;23.384;2023-03-29T03:49:47;94913.00;;;-0.88;59.30
56052;BME280;41919;42.648;23.384;2023-03-29T03:52:13;94996.66;;;-0.43;59.57
56052;BME280;41919;42.648;23.384;2023-03-29T03:54:38;94977.66;;;-0.52;59.00
56052;BME280;41919;42.648;23.384;2023-03-29T03:57:04;95008.28;;;-0.39;58.43
56052;BME280;41919;42.648;23.384;2023-03-29T03:59:30;94913.13;;;-1.10;58.39
56052;BME280;41919;42.648;23.384;2023-03-29T04:01:55;94925.09;;;-1.00;58.46
56052;BME280;41919;42.648;23.384;2023-03-29T04:04:22;94977.28;;;-0.68;57.93
56052;BME280;41919;42.648;23.384;2023-03-29T04:06:48;95013.38;;;-0.49;58.23
56052;BME280;41919;42.648;23.384;2023-03-29T04:09:14;94958.50;;;-0.90;58.17
56052;BME280;41919;42.648;23.384;2023-03-29T04:11:40;94970.34;;;-0.77;57.55
56052;BME280;41919;42.648;23.384;2023-03-29T04:14:05;94815.97;;;-1.78;57.24
56052;BME280;41919;42.648;23.384;2023-03-29T04:16:30;95034.78;;;-0.38;56.72
56052;BME280;41919;42.648;23.384;2023-03-29T04:18:56;94883.44;;;-1.24;56.77
56052;BME280;41919;42.648;23.384;2023-03-29T04:21:21;95029.81;;;-0.19;55.93
56052;BME280;41919;42.648;23.384;2023-03-29T04:23:47;95001.91;;;-0.45;55.67
56052;BME280;41919;42.648;23.384;2023-03-29T04:26:13;95024.91;;;-0.22;55.83
56052;BME280;41919;42.648;23.384;2023-03-29T04:28:40;94969.28;;;-0.54;54.77
56052;BME280;41919;42.648;23.384;2023-03-29T04:31:10;95026.66;;;-0.02;54.16
56052;BME280;41919;42.648;23.384;2023-03-29T04:33:36;95006.28;;;-0.14;54.11
56052;BME280;41919;42.648;23.384;2023-03-29T04:36:02;94967.78;;;-0.35;53.47
56052;BME280;41919;42.648;23.384;2023-03-29T04:38:27;95048.59;;;0.33;53.16
56052;BME280;41919;42.648;23.384;2023-03-29T04:40:53;94975.41;;;0.07;52.58
56052;BME280;41919;42.648;23.384;2023-03-29T04:43:19;95043.19;;;0.67;52.11
56052;BME280;41919;42.648;23.384;2023-03-29T04:45:44;95051.91;;;0.55;52.18
56052;BME280;41919;42.648;23.384;2023-03-29T04:48:10;94962.84;;;0.13;51.77
56052;BME280;41919;42.648;23.384;2023-03-29T04:50:35;95054.72;;;0.83;51.45
56052;BME280;41919;42.648;23.384;2023-03-29T04:53:01;94970.72;;;0.52;51.21
56052;BME280;41919;42.648;23.384;2023-03-29T04:55:26;94971.44;;;0.84;50.36
56052;BME280;41919;42.648;23.384;2023-03-29T04:57:52;95035.41;;;1.27;49.79
56052;BME280;41919;42.648;23.384;2023-03-29T05:00:18;95051.16;;;1.53;48.97
56052;BME280;41919;42.648;23.384;2023-03-29T05:02:51;95064.81;;;1.93;48.14
56052;BME280;41919;42.648;23.384;2023-03-29T05:05:16;95070.34;;;2.08;47.46
56052;BME280;41919;42.648;23.384;2023-03-29T05:07:41;94984.16;;;1.73;47.16
56052;BME280;41919;42.648;23.384;2023-03-29T05:10:08;95005.53;;;1.93;46.80
56052;BME280;41919;42.648;23.384;2023-03-29T05:12:34;95041.69;;;2.21;46.18
56052;BME280;41919;42.648;23.384;2023-03-29T05:14:59;95084.88;;;2.56;45.78
56052;BME280;41919;42.648;23.384;2023-03-29T05:17:25;95032.97;;;2.31;44.94
56052;BME280;41919;42.648;23.384;2023-03-29T05:19:51;95054.84;;;2.65;44.26
56052;BME280;41919;42.648;23.384;2023-03-29T05:22:18;95020.44;;;2.46;43.45
56052;BME280;41919;42.648;23.384;2023-03-29T05:24:44;95039.56;;;2.99;42.85
56052;BME280;41919;42.648;23.384;2023-03-29T05:27:09;95026.09;;;3.05;42.27
56052;BME280;41919;42.648;23.384;2023-03-29T05:29:35;95011.44;;;3.42;41.06
56052;BME280;41919;42.648;23.384;2023-03-29T05:32:01;95016.97;;;3.91;39.69
56052;BME280;41919;42.648;23.384;2023-03-29T05:34:27;95123.69;;;4.63;38.75
56052;BME280;41919;42.648;23.384;2023-03-29T05:36:52;95049.19;;;4.49;38.69
56052;BME280;41919;42.648;23.384;2023-03-29T05:39:18;95032.88;;;4.91;37.91
56052;BME280;41919;42.648;23.384;2023-03-29T05:41:43;95122.13;;;5.56;37.67
56052;BME280;41919;42.648;23.384;2023-03-29T05:44:08;94994.09;;;4.30;37.84
56052;BME280;41919;42.648;23.384;2023-03-29T05:46:34;95115.84;;;5.75;37.41
56052;BME280;41919;42.648;23.384;2023-03-29T05:49:00;95107.94;;;6.42;36.30
56052;BME280;41919;42.648;23.384;2023-03-29T05:51:26;95044.59;;;6.59;36.25
56052;BME280;41919;42.648;23.384;2023-03-29T05:53:51;95122.19;;;7.58;34.68
56052;BME280;41919;42.648;23.384;2023-03-29T05:56:18;95056.88;;;7.21;34.08
56052;BME280;41919;42.648;23.384;2023-03-29T05:58:44;95114.59;;;8.02;33.01
56052;BME280;41919;42.648;23.384;2023-03-29T06:01:14;95118.63;;;8.05;32.77
56052;BME280;41919;42.648;23.384;2023-03-29T06:03:39;95131.31;;;7.54;33.00
56052;BME280;41919;42.648;23.384;2023-03-29T06:06:05;95069.88;;;6.82;33.53
56052;BME280;41919;42.648;23.384;2023-03-29T06:08:32;95072.91;;;6.94;34.44
56052;BME280;41919;42.648;23.384;2023-03-29T06:10:59;95115.66;;;8.31;32.72
56052;BME280;41919;42.648;23.384;2023-03-29T06:13:27;95065.34;;;8.54;31.27
56052;BME280;41919;42.648;23.384;2023-03-29T06:15:53;95073.91;;;8.92;31.12
56052;BME280;41919;42.648;23.384;2023-03-29T06:18:18;95121.53;;;10.47;28.96
56052;BME280;41919;42.648;23.384;2023-03-29T06:20:48;95121.44;;;9.75;29.50
56052;BME280;41919;42.648;23.384;2023-03-29T06:23:15;95137.28;;;9.74;30.23
56052;BME280;41919;42.648;23.384;2023-03-29T06:25:40;95129.63;;;8.91;30.86
56052;BME280;41919;42.648;23.384;2023-03-29T06:28:05;95134.53;;;8.56;31.85
56052;BME280;41919;42.648;23.384;2023-03-29T06:30:31;95139.59;;;9.02;31.25
56052;BME280;41919;42.648;23.384;2023-03-29T06:32:59;95140.19;;;8.37;31.50
56052;BME280;41919;42.648;23.384;2023-03-29T06:35:25;95136.19;;;8.26;31.66
56052;BME280;41919;42.648;23.384;2023-03-29T06:37:51;95156.03;;;8.73;31.59
56052;BME280;41919;42.648;23.384;2023-03-29T06:40:18;95093.84;;;7.63;31.99
56052;BME280;41919;42.648;23.384;2023-03-29T06:42:45;95147.59;;;7.47;32.75
56052;BME280;41919;42.648;23.384;2023-03-29T06:45:11;95168.22;;;7.01;33.93
56052;BME280;41919;42.648;23.384;2023-03-29T06:47:37;95100.81;;;6.19;34.72
56052;BME280;41919;42.648;23.384;2023-03-29T06:50:02;95101.75;;;5.85;35.01
56052;BME280;41919;42.648;23.384;2023-03-29T06:52:28;95155.63;;;6.00;35.56
56052;BME280;41919;42.648;23.384;2023-03-29T06:54:53;95124.72;;;6.95;34.08
56052;BME280;41919;42.648;23.384;2023-03-29T06:57:19;95164.53;;;7.35;33.62
56052;BME280;41919;42.648;23.384;2023-03-29T06:59:45;95171.75;;;7.17;33.60
56052;BME280;41919;42.648;23.384;2023-03-29T07:02:11;95096.88;;;7.52;32.91
56052;BME280;41919;42.648;23.384;2023-03-29T07:04:37;95161.69;;;9.66;30.41
56052;BME280;41919;42.648;23.384;2023-03-29T07:07:03;95140.03;;;11.36;27.60
56052;BME280;41919;42.648;23.384;2023-03-29T07:09:31;95082.66;;;11.90;25.38
56052;BME280;41919;42.648;23.384;2023-03-29T07:11:57;95081.47;;;12.72;24.64
56052;BME280;41919;42.648;23.384;2023-03-29T07:14:24;95073.41;;;12.34;24.95
56052;BME280;41919;42.648;23.384;2023-03-29T07:16:54;95075.38;;;12.99;24.69
56052;BME280;41919;42.648;23.384;2023-03-29T07:19:20;95138.19;;;14.42;24.31
56052;BME280;41919;42.648;23.384;2023-03-29T07:21:48;95121.16;;;15.39;22.82
56052;BME280;41919;42.648;23.384;2023-03-29T07:24:14;95112.25;;;15.40;21.37
56052;BME280;41919;42.648;23.384;2023-03-29T07:26:40;95122.06;;;16.00;20.36
56052;BME280;41919;42.648;23.384;2023-03-29T07:29:05;95142.84;;;16.50;20.12
56052;BME280;41919;42.648;23.384;2023-03-29T07:31:32;95084.47;;;16.46;20.04
56052;BME280;41919;42.648;23.384;2023-03-29T07:34:00;95085.41;;;16.64;19.62
56052;BME280;41919;42.648;23.384;2023-03-29T07:36:27;95112.94;;;16.14;20.25
56052;BME280;41919;42.648;23.384;2023-03-29T07:38:54;95131.25;;;15.23;21.26
56052;BME280;41919;42.648;23.384;2023-03-29T07:41:20;95120.31;;;14.51;21.54
56052;BME280;41919;42.648;23.384;2023-03-29T07:43:46;95058.63;;;13.90;21.46
56052;BME280;41919;42.648;23.384;2023-03-29T07:46:12;95084.16;;;13.44;22.35
56052;BME280;41919;42.648;23.384;2023-03-29T07:48:38;95118.25;;;14.60;21.53
56052;BME280;41919;42.648;23.384;2023-03-29T07:51:04;95090.50;;;13.68;22.34
56052;BME280;41919;42.648;23.384;2023-03-29T07:53:30;95121.41;;;12.68;23.59
56052;BME280;41919;42.648;23.384;2023-03-29T07:55:56;95106.31;;;13.55;22.65
56052;BME280;41919;42.648;23.384;2023-03-29T07:58:21;95074.69;;;14.14;21.49
56052;BME280;41919;42.648;23.384;2023-03-29T08:00:47;95092.81;;;14.47;21.41
56052;BME280;41919;42.648;23.384;2023-03-29T08:03:13;95102.19;;;15.48;20.89
56052;BME280;41919;42.648;23.384;2023-03-29T08:05:39;95079.72;;;15.09;20.84
56052;BME280;41919;42.648;23.384;2023-03-29T08:08:05;95071.22;;;13.43;21.63
56052;BME280;41919;42.648;23.384;2023-03-29T08:10:31;95038.34;;;12.02;22.59
56052;BME280;41919;42.648;23.384;2023-03-29T08:12:58;95098.19;;;12.91;22.24
56052;BME280;41919;42.648;23.384;2023-03-29T08:15:24;95033.88;;;12.55;22.39
56052;BME280;41919;42.648;23.384;2023-03-29T08:17:50;95037.44;;;12.88;22.27
56052;BME280;41919;42.648;23.384;2023-03-29T08:20:15;95013.16;;;12.14;23.11
56052;BME280;41919;42.648;23.384;2023-03-29T08:22:42;95026.19;;;11.81;23.66
56052;BME280;41919;42.648;23.384;2023-03-29T08:25:08;95091.75;;;12.34;23.49
56052;BME280;41919;42.648;23.384;2023-03-29T08:27:34;95099.44;;;12.75;23.38
56052;BME280;41919;42.648;23.384;2023-03-29T08:29:59;95098.00;;;12.80;23.16
56052;BME280;41919;42.648;23.384;2023-03-29T08:32:25;94990.75;;;11.78;23.23
56052;BME280;41919;42.648;23.384;2023-03-29T08:34:50;95072.22;;;12.30;23.60
56052;BME280;41919;42.648;23.384;2023-03-29T08:37:16;95069.31;;;11.78;23.53
56052;BME280;41919;42.648;23.384;2023-03-29T08:39:42;95021.13;;;11.04;23.96
56052;BME280;41919;42.648;23.384;2023-03-29T08:45:24;95091.94;;;12.06;23.50
56052;BME280;41919;42.648;23.384;2023-03-29T08:50:33;95086.22;;;11.89;23.80
56052;BME280;41919;42.648;23.384;2023-03-29T08:53:04;95050.56;;;11.13;23.24
56052;BME280;41919;42.648;23.384;2023-03-29T08:55:38;95077.16;;;10.82;22.93
56052;BME280;41919;42.648;23.384;2023-03-29T08:58:07;95084.13;;;11.03;23.21
56052;BME280;41919;42.648;23.384;2023-03-29T09:00:40;95027.22;;;9.70;22.15
56052;BME280;41919;42.648;23.384;2023-03-29T09:03:26;95073.56;;;9.68;22.64
56052;BME280;41919;42.648;23.384;2023-03-29T09:06:02;95083.66;;;9.71;23.97
56052;BME280;41919;42.648;23.384;2023-03-29T09:08:29;95088.88;;;9.93;23.58
56052;BME280;41919;42.648;23.384;2023-03-29T09:11:11;95085.28;;;9.72;24.31
56052;BME280;41919;42.648;23.384;2023-03-29T09:19:13;95070.88;;;9.98;23.29
56052;BME280;41919;42.648;23.384;2023-03-29T09:27:16;95076.56;;;9.65;24.63
56052;BME280;41919;42.648;23.384;2023-03-29T09:29:45;95084.63;;;9.49;23.36
56052;BME280;41919;42.648;23.384;2023-03-29T09:32:22;95072.72;;;9.61;23.68
56052;BME280;41919;42.648;23.384;2023-03-29T09:35:02;95031.47;;;9.71;24.04
56052;BME280;41919;42.648;23.384;2023-03-29T09:37:35;94986.81;;;9.23;23.38
56052;BME280;41919;42.648;23.384;2023-03-29T09:40:09;94983.91;;;9.11;24.65
56052;BME280;41919;42.648;23.384;2023-03-29T09:42:35;95060.34;;;9.91;23.98
56052;BME280;41919;42.648;23.384;2023-03-29T09:45:04;94984.31;;;9.73;23.51
56052;BME280;41919;42.648;23.384;2023-03-29T09:47:38;95014.41;;;9.97;22.82
56052;BME280;41919;42.648;23.384;2023-03-29T09:50:33;95059.84;;;10.24;28.27
56052;BME280;41919;42.648;23.384;2023-03-29T09:53:01;95018.78;;;10.18;24.37
56052;BME280;41919;42.648;23.384;2023-03-29T09:55:29;95013.94;;;9.87;24.33
56052;BME280;41919;42.648;23.384;2023-03-29T09:58:12;94973.91;;;9.79;24.67
56052;BME280;41919;42.648;23.384;2023-03-29T10:00:39;95049.94;;;10.19;23.58
56052;BME280;41919;42.648;23.384;2023-03-29T10:03:07;95035.56;;;9.80;22.20
56052;BME280;41919;42.648;23.384;2023-03-29T10:05:35;95051.13;;;9.52;22.85
56052;BME280;41919;42.648;23.384;2023-03-29T10:08:29;95055.72;;;9.14;23.03
56052;BME280;41919;42.648;23.384;2023-03-29T10:10:59;95053.38;;;9.19;23.25
56052;BME280;41919;42.648;23.384;2023-03-29T10:13:33;94934.09;;;8.40;22.80
56052;BME280;41919;42.648;23.384;2023-03-29T10:16:06;95064.38;;;8.70;23.37
56052;BME280;41919;42.648;23.384;2023-03-29T10:18:38;95054.84;;;8.77;23.75
56052;BME280;41919;42.648;23.384;2023-03-29T10:21:04;94989.69;;;8.17;24.12
56052;BME280;41919;42.648;23.384;2023-03-29T10:23:35;95047.28;;;8.52;24.11
56052;BME280;41919;42.648;23.384;2023-03-29T10:26:16;95051.44;;;8.61;23.77
56052;BME280;41919;42.648;23.384;2023-03-29T10:28:43;95054.25;;;8.37;23.84
56052;BME280;41919;42.648;23.384;2023-03-29T10:31:16;95047.41;;;8.36;23.78
56052;BME280;41919;42.648;23.384;2023-03-29T10:33:42;95047.06;;;8.39;24.17
56052;BME280;41919;42.648;23.384;2023-03-29T10:36:10;95018.91;;;8.04;24.11
56052;BME280;41919;42.648;23.384;2023-03-29T10:38:37;94965.13;;;7.59;23.92
56052;BME280;41919;42.648;23.384;2023-03-29T10:41:05;95018.19;;;7.96;24.14
56052;BME280;41919;42.648;23.384;2023-03-29T10:43:42;95056.38;;;8.18;24.43
56052;BME280;41919;42.648;23.384;2023-03-29T10:46:09;95033.94;;;8.17;24.73
56052;BME280;41919;42.648;23.384;2023-03-29T10:48:38;95031.72;;;8.29;24.88
56052;BME280;41919;42.648;23.384;2023-03-29T10:51:05;95015.97;;;8.22;24.19
56052;BME280;41919;42.648;23.384;2023-03-29T10:53:33;94981.00;;;7.87;24.09
56052;BME280;41919;42.648;23.384;2023-03-29T11:17:49;95011.63;;;8.00;24.32
56052;BME280;41919;42.648;23.384;2023-03-29T11:22:59;95001.66;;;7.89;24.56
56052;BME280;41919;42.648;23.384;2023-03-29T11:25:47;94991.06;;;8.05;24.77
56052;BME280;41919;42.648;23.384;2023-03-29T11:29:09;94990.84;;;8.30;24.89
56052;BME280;41919;42.648;23.384;2023-03-29T11:39:22;94996.56;;;8.48;23.92
56052;BME280;41919;42.648;23.384;2023-03-29T11:41:54;94937.44;;;8.19;24.89
56052;BME280;41919;42.648;23.384;2023-03-29T11:44:28;94935.34;;;8.14;24.77
56052;BME280;41919;42.648;23.384;2023-03-29T11:47:17;94994.69;;;8.34;24.10
56052;BME280;41919;42.648;23.384;2023-03-29T11:50:18;94933.78;;;7.75;24.83
56052;BME280;41919;42.648;23.384;2023-03-29T11:52:39;94989.03;;;8.15;25.21
56052;BME280;41919;42.648;23.384;2023-03-29T11:58:01;94997.91;;;8.44;23.97
56052;BME280;41919;42.648;23.384;2023-03-29T12:00:37;94987.09;;;8.47;23.81
56052;BME280;41919;42.648;23.384;2023-03-29T12:06:19;94993.13;;;8.77;24.04
56052;BME280;41919;42.648;23.384;2023-03-29T12:08:57;94983.50;;;8.78;22.96
56052;BME280;41919;42.648;23.384;2023-03-29T12:11:44;94978.56;;;8.68;23.68
56052;BME280;41919;42.648;23.384;2023-03-29T12:14:24;94987.84;;;8.71;23.67
56052;BME280;41919;42.648;23.384;2023-03-29T12:17:07;94925.03;;;8.21;22.46
56052;BME280;41919;42.648;23.384;2023-03-29T12:19:56;94975.78;;;8.40;23.47
56052;BME280;41919;42.648;23.384;2023-03-29T12:22:25;94986.66;;;8.58;23.50
56052;BME280;41919;42.648;23.384;2023-03-29T12:24:52;94917.31;;;8.13;22.86
56052;BME280;41919;42.648;23.384;2023-03-29T12:27:29;94909.31;;;7.99;23.12
56052;BME280;41919;42.648;23.384;2023-03-29T12:32:44;94963.00;;;8.15;24.05
56052;BME280;41919;42.648;23.384;2023-03-29T12:40:45;94999.31;;;8.47;23.58
56052;BME280;41919;42.648;23.384;2023-03-29T12:46:07;94983.97;;;8.52;23.60
56052;BME280;41919;42.648;23.384;2023-03-29T12:48:36;94972.38;;;8.54;23.46
56052;BME280;41919;42.648;23.384;2023-03-29T12:51:07;94997.47;;;8.55;24.06
56052;BME280;41919;42.648;23.384;2023-03-29T12:53:48;94938.25;;;8.34;24.20
56052;BME280;41919;42.648;23.384;2023-03-29T12:56:18;94981.34;;;8.67;24.01
56052;BME280;41919;42.648;23.384;2023-03-29T13:01:29;94980.09;;;8.62;24.56
56052;BME280;41919;42.648;23.384;2023-03-29T13:04:12;94988.47;;;8.73;24.29
56052;BME280;41919;42.648;23.384;2023-03-29T13:06:59;94910.84;;;8.38;24.87
56052;BME280;41919;42.648;23.384;2023-03-29T13:09:49;94931.75;;;8.30;24.57
56052;BME280;41919;42.648;23.384;2023-03-29T13:12:23;94979.47;;;8.75;24.88
56052;BME280;41919;42.648;23.384;2023-03-29T13:14:53;94913.53;;;8.30;24.76
56052;BME280;41919;42.648;23.384;2023-03-29T13:30:58;94984.38;;;8.25;24.59
56052;BME280;41919;42.648;23.384;2023-03-29T13:36:42;94987.34;;;8.37;25.17
56052;BME280;41919;42.648;23.384;2023-03-29T13:39:31;94901.22;;;7.79;24.95
56052;BME280;41919;42.648;23.384;2023-03-29T13:44:40;94995.97;;;8.23;24.98
56052;BME280;41919;42.648;23.384;2023-03-29T13:49:53;94975.31;;;8.36;25.22
56052;BME280;41919;42.648;23.384;2023-03-29T13:55:19;94981.34;;;8.37;25.38
56052;BME280;41919;42.648;23.384;2023-03-29T14:00:21;94983.69;;;8.47;23.95
56052;BME280;41919;42.648;23.384;2023-03-29T14:02:54;94911.38;;;7.89;24.31
56052;BME280;41919;42.648;23.384;2023-03-29T14:05:28;94985.53;;;8.38;23.99
56052;BME280;41919;42.648;23.384;2023-03-29T14:07:56;94975.97;;;8.38;24.05
56052;BME280;41919;42.648;23.384;2023-03-29T14:10:33;94980.28;;;8.46;24.42
56052;BME280;41919;42.648;23.384;2023-03-29T14:13:02;94953.03;;;8.34;24.72
56052;BME280;41919;42.648;23.384;2023-03-29T14:18:09;94931.66;;;8.09;23.89
56052;BME280;41919;42.648;23.384;2023-03-29T14:20:36;94915.16;;;8.16;23.69
56052;BME280;41919;42.648;23.384;2023-03-29T14:23:09;94852.50;;;7.58;23.32
56052;BME280;41919;42.648;23.384;2023-03-29T14:25:36;94981.06;;;8.32;23.60
56052;BME280;41919;42.648;23.384;2023-03-29T14:28:27;94990.09;;;8.44;23.33
56052;BME280;41919;42.648;23.384;2023-03-29T14:30:54;94910.75;;;8.02;23.03
56052;BME280;41919;42.648;23.384;2023-03-29T14:33:28;94989.69;;;8.32;22.94
56052;BME280;41919;42.648;23.384;2023-03-29T14:35:57;94966.66;;;8.44;23.18
56052;BME280;41919;42.648;23.384;2023-03-29T14:38:25;94896.38;;;7.76;23.75
56052;BME280;41919;42.648;23.384;2023-03-29T14:40:51;94989.78;;;8.39;23.89
56052;BME280;41919;42.648;23.384;2023-03-29T14:43:19;94797.91;;;7.20;24.39
56052;BME280;41919;42.648;23.384;2023-03-29T14:45:47;94994.53;;;8.35;23.83
56052;BME280;41919;42.648;23.384;2023-03-29T14:48:13;94993.09;;;8.33;23.22
56052;BME280;41919;42.648;23.384;2023-03-29T14:50:40;94996.28;;;8.43;23.26
56052;BME280;41919;42.648;23.384;2023-03-29T14:53:07;94927.19;;;8.02;23.28
56052;BME280;41919;42.648;23.384;2023-03-29T14:55:38;94988.88;;;8.32;23.67
56052;BME280;41919;42.648;23.384;2023-03-29T14:58:16;94999.28;;;8.32;24.30
56052;BME280;41919;42.648;23.384;2023-03-29T15:00:47;94936.34;;;7.98;24.23
56052;BME280;41919;42.648;23.384;2023-03-29T15:03:15;95005.75;;;8.36;24.17
56052;BME280;41919;42.648;23.384;2023-03-29T15:05:52;94976.84;;;8.31;24.50
56052;BME280;41919;42.648;23.384;2023-03-29T15:08:30;94927.13;;;7.73;24.51